Time;durP1;ratioP1;P1;durP2;ratioP2;P2;SDS_P1;SDS_P2;PMS_P1;PMS_P2;Temp;Humidity;BMP_temperature;BMP_pressure;BME280_temperature;BME280_humidity;BME280_pressure;Samples;Min_cycle;Max_cycle;Signal;HPM_P1;HPM_P2
2021/07/04 00:00:15;;;;;;;;;;;17.60;99.90;;;;;;5030749;28;19999;-79
2021/07/04 00:02:41;;;;;;;;;;;17.60;99.90;;;;;;5031678;28;19917;-79
2021/07/04 00:05:08;;;;;;;;;;;17.60;99.90;;;;;;5034973;28;20347;-79
2021/07/04 00:07:34;;;;;;;;;;;17.60;99.90;;;;;;5035302;28;19921;-80
2021/07/04 00:09:59;;;;;;;;;;;17.60;99.90;;;;;;5029740;28;19917;-80
2021/07/04 00:12:25;;;;;;;;;;;17.70;99.90;;;;;;5035646;28;20457;-79
2021/07/04 00:14:50;;;;;;;;;;;17.70;99.90;;;;;;5032785;28;19939;-80
2021/07/04 00:17:16;;;;;;;;;;;17.60;99.90;;;;;;5032193;28;19921;-79
2021/07/04 00:19:42;;;;;;;;;;;17.60;99.90;;;;;;5035430;28;19940;-79
2021/07/04 00:22:08;;;;;;;;;;;17.60;99.90;;;;;;5035510;28;20212;-79
2021/07/04 00:24:34;;;;;;;;;;;17.60;99.90;;;;;;5035168;28;19921;-79
2021/07/04 00:26:59;;;;;;;;;;;17.60;99.90;;;;;;5036325;28;19986;-80
2021/07/04 00:29:25;;;;;;;;;;;17.60;99.90;;;;;;5035051;28;19960;-80
2021/07/04 00:31:50;;;;;;;;;;;17.60;99.90;;;;;;5007699;28;19923;-80
2021/07/04 00:34:17;;;;;;;;;;;17.60;99.90;;;;;;5035489;28;20212;-80
2021/07/04 00:36:42;;;;;;;;;;;17.70;99.90;;;;;;5018442;28;19932;-80
2021/07/04 00:39:08;;;;;;;;;;;17.70;99.90;;;;;;5036378;28;20185;-79
2021/07/04 00:41:33;;;;;;;;;;;17.70;99.90;;;;;;5034812;28;20308;-80
2021/07/04 00:43:59;;;;;;;;;;;17.70;99.90;;;;;;5035394;28;19917;-79
2021/07/04 00:46:27;;;;;;;;;;;17.70;99.90;;;;;;5018471;28;19913;-80
2021/07/04 00:48:52;;;;;;;;;;;17.70;99.90;;;;;;5029720;28;19924;-80
2021/07/04 00:51:18;;;;;;;;;;;17.70;99.90;;;;;;5033807;28;19914;-79
2021/07/04 00:53:44;;;;;;;;;;;17.70;99.90;;;;;;5034010;28;19925;-79
2021/07/04 00:56:10;;;;;;;;;;;17.70;99.90;;;;;;5036278;28;19920;-80
2021/07/04 00:58:36;;;;;;;;;;;17.70;99.90;;;;;;5034840;28;19913;-81
2021/07/04 01:01:02;;;;;;;;;;;17.70;99.90;;;;;;5027449;28;19972;-78
2021/07/04 01:03:27;;;;;;;;;;;17.70;99.90;;;;;;5034073;28;19917;-80
2021/07/04 01:05:53;;;;;;;;;;;17.80;99.90;;;;;;5035368;28;19924;-80
2021/07/04 01:08:19;;;;;;;;;;;17.80;99.90;;;;;;5035200;28;19924;-82
2021/07/04 01:10:45;;;;;;;;;;;17.80;99.90;;;;;;5035073;28;19924;-78
2021/07/04 01:13:12;;;;;;;;;;;17.80;99.90;;;;;;5034243;28;19928;-80
2021/07/04 01:15:38;;;;;;;;;;;17.90;99.90;;;;;;5029852;28;19913;-79
2021/07/04 01:18:05;;;;;;;;;;;17.90;99.90;;;;;;5031623;28;20008;-79
2021/07/04 01:20:31;;;;;;;;;;;17.90;99.90;;;;;;5033903;28;19920;-79
2021/07/04 01:23:01;;;;;;;;;;;17.80;99.90;;;;;;5034129;28;19918;-80
2021/07/04 01:25:29;;;;;;;;;;;17.80;99.90;;;;;;5034114;28;19936;-78
2021/07/04 01:27:55;;;;;;;;;;;17.80;99.90;;;;;;5017140;28;19916;-80
2021/07/04 01:30:20;;;;;;;;;;;17.70;99.90;;;;;;5034947;28;20422;-80
2021/07/04 01:32:46;;;;;;;;;;;17.70;99.90;;;;;;5033660;28;19917;-79
2021/07/04 01:35:12;;;;;;;;;;;17.70;99.90;;;;;;5035631;28;19924;-79
2021/07/04 01:37:38;;;;;;;;;;;17.70;99.90;;;;;;5035313;28;19917;-78
2021/07/04 01:40:04;;;;;;;;;;;17.60;99.90;;;;;;5033915;28;19913;-79
2021/07/04 01:42:30;;;;;;;;;;;17.60;99.90;;;;;;5033508;28;19913;-79
2021/07/04 01:44:56;;;;;;;;;;;17.60;99.90;;;;;;5034516;28;19971;-79
2021/07/04 01:47:21;;;;;;;;;;;17.60;99.90;;;;;;5034043;28;19920;-79
2021/07/04 01:49:47;;;;;;;;;;;17.60;99.90;;;;;;5034145;28;19916;-79
2021/07/04 01:52:12;;;;;;;;;;;17.60;99.90;;;;;;5032567;28;20224;-79
2021/07/04 01:54:38;;;;;;;;;;;17.60;99.90;;;;;;5033493;28;19917;-79
2021/07/04 01:57:12;;;;;;;;;;;17.60;99.90;;;;;;5032279;28;21232;-79
2021/07/04 01:59:42;;;;;;;;;;;17.50;99.90;;;;;;5029661;28;19917;-79
2021/07/04 02:02:07;;;;;;;;;;;17.50;99.90;;;;;;5033245;28;19913;-78
2021/07/04 02:04:37;;;;;;;;;;;17.50;99.90;;;;;;5017394;28;20399;-79
2021/07/04 02:07:04;;;;;;;;;;;17.50;99.90;;;;;;5035169;28;19921;-78
2021/07/04 02:09:30;;;;;;;;;;;17.50;99.90;;;;;;5035119;28;19913;-78
2021/07/04 02:11:55;;;;;;;;;;;17.40;99.90;;;;;;5012234;28;20358;-78
2021/07/04 02:14:21;;;;;;;;;;;17.40;99.90;;;;;;5033737;28;19964;-78
2021/07/04 02:16:46;;;;;;;;;;;17.50;99.90;;;;;;5032687;28;19963;-78
2021/07/04 02:19:12;;;;;;;;;;;17.40;99.90;;;;;;5033010;28;19913;-78
2021/07/04 02:21:37;;;;;;;;;;;17.40;99.90;;;;;;5032117;28;19952;-78
2021/07/04 02:24:03;;;;;;;;;;;17.40;99.90;;;;;;5033173;28;19987;-78
2021/07/04 02:26:29;;;;;;;;;;;17.40;99.90;;;;;;5033280;28;19924;-78
2021/07/04 02:28:54;;;;;;;;;;;17.40;99.90;;;;;;5034289;28;19918;-79
2021/07/04 02:31:20;;;;;;;;;;;17.40;99.90;;;;;;5034721;28;19913;-78
2021/07/04 02:33:45;;;;;;;;;;;17.50;99.90;;;;;;5034640;28;20304;-78
2021/07/04 02:36:11;;;;;;;;;;;17.50;99.90;;;;;;5016418;28;20304;-79
2021/07/04 02:38:36;;;;;;;;;;;17.40;99.90;;;;;;5017141;28;20088;-78
2021/07/04 02:41:02;;;;;;;;;;;17.40;99.90;;;;;;5015973;28;20220;-78
2021/07/04 02:43:28;;;;;;;;;;;17.40;99.90;;;;;;5016843;28;19917;-78
2021/07/04 02:45:53;;;;;;;;;;;17.40;99.90;;;;;;5028542;28;20465;-78
2021/07/04 02:48:20;;;;;;;;;;;17.40;99.90;;;;;;5031564;28;20008;-78
2021/07/04 02:50:46;;;;;;;;;;;17.40;99.90;;;;;;5017117;28;20256;-79
2021/07/04 02:53:11;;;;;;;;;;;17.40;99.90;;;;;;5015941;28;19932;-79
2021/07/04 02:55:37;;;;;;;;;;;17.40;99.90;;;;;;5031158;28;19913;-79
2021/07/04 02:58:04;;;;;;;;;;;17.40;99.90;;;;;;5033434;28;20323;-79
2021/07/04 03:00:29;;;;;;;;;;;17.40;99.90;;;;;;5032665;28;19923;-79
2021/07/04 03:02:55;;;;;;;;;;;17.40;99.90;;;;;;5033347;28;20238;-79
2021/07/04 03:05:21;;;;;;;;;;;17.50;99.90;;;;;;5032082;28;19913;-78
2021/07/04 03:07:46;;;;;;;;;;;17.40;99.90;;;;;;5017188;28;19975;-79
2021/07/04 03:10:13;;;;;;;;;;;17.40;99.90;;;;;;5034470;28;19914;-79
2021/07/04 03:12:39;;;;;;;;;;;17.40;99.90;;;;;;5022529;28;19966;-79
2021/07/04 03:15:05;;;;;;;;;;;17.40;99.90;;;;;;5037429;28;20395;-80
2021/07/04 03:17:31;;;;;;;;;;;17.40;99.90;;;;;;5019313;28;19914;-79
2021/07/04 03:19:56;;;;;;;;;;;17.50;99.90;;;;;;5036928;28;20267;-79
2021/07/04 03:22:22;;;;;;;;;;;17.60;99.90;;;;;;5042570;28;20008;-79
2021/07/04 03:24:47;;;;;;;;;;;17.60;99.90;;;;;;5036217;28;19913;-78
2021/07/04 03:27:13;;;;;;;;;;;17.60;99.90;;;;;;5038276;28;19939;-79
2021/07/04 03:29:39;;;;;;;;;;;17.70;99.90;;;;;;5035195;28;19962;-78
2021/07/04 03:32:05;;;;;;;;;;;17.70;99.90;;;;;;5031263;28;19928;-79
2021/07/04 03:34:30;;;;;;;;;;;17.70;99.90;;;;;;5016944;28;19921;-80
2021/07/04 03:36:56;;;;;;;;;;;17.60;99.90;;;;;;5034873;28;19921;-78
2021/07/04 03:39:22;;;;;;;;;;;17.60;99.90;;;;;;5029095;28;20373;-79
2021/07/04 03:41:48;;;;;;;;;;;17.60;99.90;;;;;;5019297;28;19996;-78
2021/07/04 03:44:13;;;;;;;;;;;17.60;99.90;;;;;;5035745;28;19968;-79
2021/07/04 03:46:39;;;;;;;;;;;17.60;99.90;;;;;;5035725;28;20309;-79
2021/07/04 03:49:04;;;;;;;;;;;17.50;99.90;;;;;;5018609;28;19920;-80
2021/07/04 03:51:30;;;;;;;;;;;17.60;99.90;;;;;;5036715;28;19917;-80
2021/07/04 03:53:56;;;;;;;;;;;17.60;99.90;;;;;;5036713;28;20604;-79
2021/07/04 03:56:21;;;;;;;;;;;17.60;99.90;;;;;;5035996;28;19947;-79
2021/07/04 03:58:47;;;;;;;;;;;17.50;99.90;;;;;;5030606;28;20004;-80
2021/07/04 04:01:20;;;;;;;;;;;17.50;99.90;;;;;;5017777;28;19964;-79
2021/07/04 04:03:46;;;;;;;;;;;17.60;99.90;;;;;;5029373;28;20406;-79
2021/07/04 04:06:12;;;;;;;;;;;17.60;99.90;;;;;;5030842;28;19917;-79
2021/07/04 04:08:37;;;;;;;;;;;17.60;99.90;;;;;;5018783;28;20227;-79
2021/07/04 04:11:04;;;;;;;;;;;17.60;99.90;;;;;;5016403;28;20352;-79
2021/07/04 04:13:30;;;;;;;;;;;17.60;99.90;;;;;;5020041;28;19924;-79
2021/07/04 04:15:56;;;;;;;;;;;17.60;99.90;;;;;;5036826;28;20236;-79
2021/07/04 04:18:21;;;;;;;;;;;17.60;99.90;;;;;;5018467;28;19913;-79
2021/07/04 04:20:47;;;;;;;;;;;17.50;99.90;;;;;;5019068;28;19913;-79
2021/07/04 04:23:12;;;;;;;;;;;17.60;99.90;;;;;;5016592;28;19913;-79
2021/07/04 04:25:38;;;;;;;;;;;17.60;99.90;;;;;;5019306;28;19945;-79
2021/07/04 04:28:05;;;;;;;;;;;17.60;99.90;;;;;;5036306;28;19931;-79
2021/07/04 04:30:34;;;;;;;;;;;17.60;99.90;;;;;;5035893;28;19913;-79
2021/07/04 04:32:59;;;;;;;;;;;17.50;99.90;;;;;;5036480;28;20261;-79
2021/07/04 04:35:25;;;;;;;;;;;17.50;99.90;;;;;;5018021;28;20001;-79
2021/07/04 04:37:50;;;;;;;;;;;17.50;99.90;;;;;;5037154;28;19909;-79
2021/07/04 04:40:16;;;;;;;;;;;17.50;99.90;;;;;;5035342;28;19922;-79
2021/07/04 04:42:42;;;;;;;;;;;17.50;99.90;;;;;;5035674;28;19917;-79
2021/07/04 04:45:08;;;;;;;;;;;17.50;99.90;;;;;;5034906;28;20071;-79
2021/07/04 04:47:33;;;;;;;;;;;17.50;99.90;;;;;;5035760;28;20446;-79
2021/07/04 04:49:59;;;;;;;;;;;17.50;99.90;;;;;;5035240;28;20008;-79
2021/07/04 04:52:25;;;;;;;;;;;17.60;99.90;;;;;;5035124;28;19913;-79
2021/07/04 04:54:50;;;;;;;;;;;17.60;99.90;;;;;;5010559;28;19992;-79
2021/07/04 04:57:16;;;;;;;;;;;17.70;99.90;;;;;;5018723;28;19925;-78
2021/07/04 04:59:41;;;;;;;;;;;17.70;99.90;;;;;;5034701;28;19913;-79
2021/07/04 05:02:07;;;;;;;;;;;17.80;99.90;;;;;;5018222;28;19917;-79
2021/07/04 05:04:33;;;;;;;;;;;17.80;99.90;;;;;;5036623;28;19917;-80
2021/07/04 05:06:58;;;;;;;;;;;17.90;99.90;;;;;;5036016;28;19919;-79
2021/07/04 05:09:24;;;;;;;;;;;18.00;99.90;;;;;;5036369;28;19917;-78
2021/07/04 05:11:49;;;;;;;;;;;18.00;99.90;;;;;;5035266;28;20216;-79
2021/07/04 05:14:16;;;;;;;;;;;18.10;99.90;;;;;;5035354;28;19939;-79
2021/07/04 05:16:42;;;;;;;;;;;18.20;99.90;;;;;;5035820;28;20008;-79
2021/07/04 05:19:07;;;;;;;;;;;18.30;99.90;;;;;;5035913;28;20024;-78
2021/07/04 05:21:33;;;;;;;;;;;18.40;99.90;;;;;;5034930;28;19913;-78
2021/07/04 05:23:59;;;;;;;;;;;18.40;99.90;;;;;;5034741;28;20342;-78
2021/07/04 05:26:25;;;;;;;;;;;18.40;99.90;;;;;;5034137;28;19917;-79
2021/07/04 05:28:51;;;;;;;;;;;18.40;99.90;;;;;;5018003;28;20267;-80
2021/07/04 05:31:16;;;;;;;;;;;18.30;99.90;;;;;;5034842;28;19913;-79
2021/07/04 05:33:42;;;;;;;;;;;18.30;99.90;;;;;;5017360;28;19935;-79
2021/07/04 05:36:07;;;;;;;;;;;18.20;99.90;;;;;;5033961;28;20050;-78
2021/07/04 05:38:35;;;;;;;;;;;18.20;99.90;;;;;;5034087;28;19933;-79
2021/07/04 05:41:01;;;;;;;;;;;18.20;99.90;;;;;;5018358;28;19971;-79
2021/07/04 05:43:26;;;;;;;;;;;18.30;99.90;;;;;;5035692;28;20301;-78
2021/07/04 05:45:52;;;;;;;;;;;18.30;99.90;;;;;;5016997;28;20376;-79
2021/07/04 05:48:18;;;;;;;;;;;18.30;99.90;;;;;;5034882;28;19913;-78
2021/07/04 05:50:43;;;;;;;;;;;18.30;99.90;;;;;;5034761;28;20012;-79
2021/07/04 05:53:09;;;;;;;;;;;18.30;99.90;;;;;;5034773;28;19916;-79
2021/07/04 05:55:34;;;;;;;;;;;18.30;99.90;;;;;;5033680;28;20262;-79
2021/07/04 05:58:00;;;;;;;;;;;18.40;99.90;;;;;;5017107;28;19984;-79
2021/07/04 06:00:26;;;;;;;;;;;18.40;99.90;;;;;;5013583;28;19909;-80
2021/07/04 06:02:52;;;;;;;;;;;18.40;99.90;;;;;;5014364;28;20259;-79
2021/07/04 06:05:17;;;;;;;;;;;18.40;99.90;;;;;;5013121;28;19920;-79
2021/07/04 06:07:44;;;;;;;;;;;18.40;99.90;;;;;;5023488;28;19988;-80
2021/07/04 06:10:10;;;;;;;;;;;18.50;99.90;;;;;;5034133;28;19921;-79
2021/07/04 06:12:35;;;;;;;;;;;18.50;99.90;;;;;;5031055;28;19917;-79
2021/07/04 06:15:01;;;;;;;;;;;18.50;99.90;;;;;;5012693;28;20007;-79
2021/07/04 06:17:26;;;;;;;;;;;18.50;99.90;;;;;;5034538;28;20243;-80
2021/07/04 06:19:52;;;;;;;;;;;18.50;99.90;;;;;;5033890;28;20008;-80
2021/07/04 06:22:18;;;;;;;;;;;18.60;99.90;;;;;;5024178;28;19909;-80
2021/07/04 06:24:43;;;;;;;;;;;18.60;99.90;;;;;;5021077;28;19913;-80
2021/07/04 06:27:09;;;;;;;;;;;18.60;99.90;;;;;;5032451;28;19952;-79
2021/07/04 06:29:34;;;;;;;;;;;18.50;99.90;;;;;;5023928;28;20016;-80
2021/07/04 06:32:00;;;;;;;;;;;18.50;99.90;;;;;;5014484;28;19944;-80
2021/07/04 06:34:25;;;;;;;;;;;18.50;99.90;;;;;;5031932;28;19936;-80
2021/07/04 06:36:51;;;;;;;;;;;18.50;99.90;;;;;;5030057;28;20011;-80
2021/07/04 06:39:17;;;;;;;;;;;18.60;99.90;;;;;;5028377;28;19949;-81
2021/07/04 06:41:42;;;;;;;;;;;18.60;99.90;;;;;;5032581;28;19909;-80
2021/07/04 06:44:08;;;;;;;;;;;18.60;99.90;;;;;;5032620;28;19913;-80
2021/07/04 06:46:33;;;;;;;;;;;18.50;99.90;;;;;;5014057;28;19913;-80
2021/07/04 06:48:59;;;;;;;;;;;18.60;99.90;;;;;;5012965;28;20019;-81
2021/07/04 06:51:24;;;;;;;;;;;18.60;99.90;;;;;;5028878;28;19914;-81
2021/07/04 06:53:50;;;;;;;;;;;18.70;99.90;;;;;;5033359;28;20107;-81
2021/07/04 06:56:15;;;;;;;;;;;18.70;99.90;;;;;;5033721;28;19979;-81
2021/07/04 06:58:41;;;;;;;;;;;18.70;99.90;;;;;;5013521;28;19919;-82
2021/07/04 07:01:08;;;;;;;;;;;18.70;99.90;;;;;;5033264;28;19955;-82
2021/07/04 07:03:34;;;;;;;;;;;18.80;99.90;;;;;;5016711;28;19922;-83
2021/07/04 07:06:00;;;;;;;;;;;18.80;99.90;;;;;;5034629;28;19909;-81
2021/07/04 07:08:25;;;;;;;;;;;18.90;99.90;;;;;;5034308;28;19939;-82
2021/07/04 07:10:51;;;;;;;;;;;19.00;99.90;;;;;;5016947;28;20004;-81
2021/07/04 07:13:16;;;;;;;;;;;19.20;99.90;;;;;;5033283;28;19975;-82
2021/07/04 07:15:45;;;;;;;;;;;19.30;99.90;;;;;;5033933;28;19949;-82
2021/07/04 07:18:10;;;;;;;;;;;19.30;99.90;;;;;;5016711;28;19909;-83
2021/07/04 07:20:37;;;;;;;;;;;19.30;99.90;;;;;;5016634;28;20301;-82
2021/07/04 07:23:03;;;;;;;;;;;19.30;99.90;;;;;;5033237;28;19916;-82
2021/07/04 07:25:28;;;;;;;;;;;19.30;99.90;;;;;;5029261;28;19914;-82
2021/07/04 07:27:54;;;;;;;;;;;19.30;99.90;;;;;;5031975;28;19921;-82
2021/07/04 07:30:21;;;;;;;;;;;19.40;99.90;;;;;;5033257;28;19921;-82
2021/07/04 07:32:47;;;;;;;;;;;19.30;99.90;;;;;;5033397;28;20334;-81
2021/07/04 07:35:13;;;;;;;;;;;19.20;99.90;;;;;;5031327;28;19961;-81
2021/07/04 07:37:39;;;;;;;;;;;19.20;99.90;;;;;;5036475;28;19917;-82
2021/07/04 07:40:05;;;;;;;;;;;19.20;99.90;;;;;;5032256;28;20207;-81
2021/07/04 07:42:31;;;;;;;;;;;19.20;99.90;;;;;;5033486;28;19910;-82
2021/07/04 07:44:56;;;;;;;;;;;19.10;99.90;;;;;;5032747;28;19924;-80
2021/07/04 07:47:22;;;;;;;;;;;19.10;99.90;;;;;;5026585;28;19917;-81
2021/07/04 07:49:47;;;;;;;;;;;19.10;99.90;;;;;;5013656;28;19913;-81
2021/07/04 07:52:13;;;;;;;;;;;19.20;99.90;;;;;;5029194;28;19924;-80
2021/07/04 07:54:38;;;;;;;;;;;19.30;99.90;;;;;;5033209;28;20274;-81
2021/07/04 07:57:04;;;;;;;;;;;19.40;99.90;;;;;;5010670;28;20375;-80
2021/07/04 07:59:30;;;;;;;;;;;19.50;99.90;;;;;;5035063;28;20304;-81
2021/07/04 08:01:56;;;;;;;;;;;19.70;99.90;;;;;;5036993;28;19917;-79
2021/07/04 08:04:22;;;;;;;;;;;19.80;99.90;;;;;;5035104;28;19936;-81
2021/07/04 08:06:47;;;;;;;;;;;19.90;99.90;;;;;;5034957;28;19924;-80
2021/07/04 08:09:13;;;;;;;;;;;20.20;99.90;;;;;;5019084;28;20008;-80
2021/07/04 08:11:38;;;;;;;;;;;20.50;99.90;;;;;;5037284;28;20291;-80
2021/07/04 08:14:04;;;;;;;;;;;20.60;99.90;;;;;;5019355;28;20019;-81
2021/07/04 08:16:30;;;;;;;;;;;20.70;99.90;;;;;;5032516;28;20304;-82
2021/07/04 08:18:56;;;;;;;;;;;20.90;99.90;;;;;;5036718;28;20275;-80
2021/07/04 08:21:21;;;;;;;;;;;20.90;99.90;;;;;;5033759;28;19913;-81
2021/07/04 08:23:47;;;;;;;;;;;20.90;99.90;;;;;;5034045;28;20046;-81
2021/07/04 08:26:12;;;;;;;;;;;20.90;99.90;;;;;;5016439;28;19921;-79
2021/07/04 08:28:38;;;;;;;;;;;21.00;99.90;;;;;;5033738;28;19913;-80
2021/07/04 08:31:04;;;;;;;;;;;20.90;99.90;;;;;;5018852;28;20311;-79
2021/07/04 08:33:29;;;;;;;;;;;21.10;99.90;;;;;;5018406;28;19987;-79
2021/07/04 08:35:55;;;;;;;;;;;21.30;99.90;;;;;;5036136;28;19917;-80
2021/07/04 08:38:20;;;;;;;;;;;21.30;99.90;;;;;;5036944;28;19985;-81
2021/07/04 08:40:46;;;;;;;;;;;21.40;99.90;;;;;;5029456;28;20008;-81
2021/07/04 08:43:23;;;;;;;;;;;21.50;99.90;;;;;;5027699;28;19987;-81
2021/07/04 08:45:48;;;;;;;;;;;21.30;99.90;;;;;;5030169;28;19921;-79
2021/07/04 08:48:14;;;;;;;;;;;21.10;99.90;;;;;;5031766;28;19928;-80
2021/07/04 08:50:40;;;;;;;;;;;20.90;99.90;;;;;;5031779;28;19921;-79
2021/07/04 08:53:05;;;;;;;;;;;20.90;99.90;;;;;;5030801;28;20033;-79
2021/07/04 08:55:31;;;;;;;;;;;20.80;99.90;;;;;;5029743;28;19913;-80
2021/07/04 08:57:57;;;;;;;;;;;20.90;99.90;;;;;;5031065;28;19917;-79
2021/07/04 09:00:23;;;;;;;;;;;21.10;99.90;;;;;;5029507;28;20056;-79
2021/07/04 09:02:49;;;;;;;;;;;21.30;99.90;;;;;;5031501;28;19925;-80
2021/07/04 09:05:14;;;;;;;;;;;21.50;99.90;;;;;;5031841;28;20231;-79
2021/07/04 09:07:41;;;;;;;;;;;21.80;99.90;;;;;;5031465;28;19961;-81
2021/07/04 09:10:11;;;;;;;;;;;21.90;99.90;;;;;;5030496;28;19921;-80
2021/07/04 09:13:06;;;;;;;;;;;21.90;99.90;;;;;;5030083;28;19983;-79
2021/07/04 09:15:32;;;;;;;;;;;21.80;99.90;;;;;;5018715;28;20390;-80
2021/07/04 09:17:58;;;;;;;;;;;21.80;99.90;;;;;;5031067;28;19921;-79
2021/07/04 09:20:29;;;;;;;;;;;21.80;99.90;;;;;;5030650;28;20585;-79
2021/07/04 09:22:55;;;;;;;;;;;21.80;99.90;;;;;;5010862;28;19921;-79
2021/07/04 09:25:25;;;;;;;;;;;21.80;99.90;;;;;;5011782;28;19920;-80
2021/07/04 09:28:02;;;;;;;;;;;21.70;99.90;;;;;;5028425;28;19914;-78
2021/07/04 09:30:36;;;;;;;;;;;21.70;99.90;;;;;;5030307;28;19924;-79
2021/07/04 09:33:09;;;;;;;;;;;21.80;99.90;;;;;;5029546;28;20015;-79
2021/07/04 09:35:34;;;;;;;;;;;21.80;99.90;;;;;;5029330;28;20019;-78
2021/07/04 09:38:00;;;;;;;;;;;22.10;99.90;;;;;;5030190;28;20320;-81
2021/07/04 09:40:26;;;;;;;;;;;22.30;99.90;;;;;;5029830;28;19921;-80
2021/07/04 09:42:53;;;;;;;;;;;22.40;99.90;;;;;;5029574;28;19921;-79
2021/07/04 09:45:19;;;;;;;;;;;22.50;99.90;;;;;;5011352;28;19932;-79
2021/07/04 09:47:55;;;;;;;;;;;22.60;99.90;;;;;;5012733;28;19961;-79
2021/07/04 09:50:21;;;;;;;;;;;22.60;99.90;;;;;;5028692;28;20008;-81
2021/07/04 09:52:56;;;;;;;;;;;22.80;99.90;;;;;;5013154;28;20283;-79
2021/07/04 09:55:22;;;;;;;;;;;22.90;99.90;;;;;;5030571;28;19928;-79
2021/07/04 09:57:58;;;;;;;;;;;23.00;99.90;;;;;;5012252;28;19928;-80
2021/07/04 10:00:25;;;;;;;;;;;23.10;99.90;;;;;;5029650;28;19920;-81
2021/07/04 10:03:09;;;;;;;;;;;23.30;99.90;;;;;;5029900;28;20028;-80
2021/07/04 10:05:35;;;;;;;;;;;23.40;99.90;;;;;;5030133;28;19921;-81
2021/07/04 10:08:15;;;;;;;;;;;23.60;99.90;;;;;;5028577;28;19945;-81
2021/07/04 10:10:41;;;;;;;;;;;23.80;99.90;;;;;;5028674;28;19917;-82
2021/07/04 10:13:06;;;;;;;;;;;23.60;99.90;;;;;;5030308;28;19925;-81
2021/07/04 10:15:32;;;;;;;;;;;23.40;99.90;;;;;;5029524;28;19921;-81
2021/07/04 10:17:58;;;;;;;;;;;23.20;99.90;;;;;;5030381;28;19913;-80
2021/07/04 10:20:23;;;;;;;;;;;23.10;99.90;;;;;;5030087;28;19913;-81
2021/07/04 10:22:49;;;;;;;;;;;22.90;99.90;;;;;;5030279;28;19921;-80
2021/07/04 10:25:14;;;;;;;;;;;23.10;99.90;;;;;;5029060;28;19921;-79
2021/07/04 10:27:40;;;;;;;;;;;23.30;99.90;;;;;;5012197;28;19917;-81
2021/07/04 10:30:06;;;;;;;;;;;23.30;99.90;;;;;;5012981;28;19928;-80
2021/07/04 10:32:32;;;;;;;;;;;23.30;99.90;;;;;;5029116;28;20240;-80
2021/07/04 10:35:05;;;;;;;;;;;23.30;99.90;;;;;;5029468;28;19925;-80
2021/07/04 10:37:32;;;;;;;;;;;23.20;99.90;;;;;;5030245;28;19951;-80
2021/07/04 10:40:08;;;;;;;;;;;23.20;99.90;;;;;;5029077;28;19920;-79
2021/07/04 10:42:37;;;;;;;;;;;23.10;99.90;;;;;;5030357;28;19960;-80
2021/07/04 10:45:03;;;;;;;;;;;23.20;99.90;;;;;;5012411;28;19928;-80
2021/07/04 10:47:32;;;;;;;;;;;23.30;99.90;;;;;;5029591;28;19925;-81
2021/07/04 10:50:08;;;;;;;;;;;23.60;99.90;;;;;;5012781;28;20362;-80
2021/07/04 10:52:33;;;;;;;;;;;23.90;99.90;;;;;;5030197;28;19921;-81
2021/07/04 10:54:59;;;;;;;;;;;24.00;99.90;;;;;;5027592;28;19995;-81
2021/07/04 10:57:34;;;;;;;;;;;24.10;99.90;;;;;;5004230;28;19929;-81
2021/07/04 11:00:02;;;;;;;;;;;24.00;99.90;;;;;;4989472;28;19914;-82
2021/07/04 11:02:37;;;;;;;;;;;24.10;99.90;;;;;;4988827;28;19925;-81
2021/07/04 11:05:04;;;;;;;;;;;24.20;99.90;;;;;;4990209;28;19914;-83
2021/07/04 11:07:48;;;;;;;;;;;24.30;99.90;;;;;;5004324;28;19945;-81
2021/07/04 11:10:14;;;;;;;;;;;24.50;99.90;;;;;;4989548;28;19922;-80
2021/07/04 11:12:40;;;;;;;;;;;24.60;99.90;;;;;;4989600;28;19922;-80
2021/07/04 11:15:11;;;;;;;;;;;24.40;99.90;;;;;;4989807;28;19918;-81
2021/07/04 11:17:55;;;;;;;;;;;24.30;99.90;;;;;;5001289;28;20045;-81
2021/07/04 11:20:25;;;;;;;;;;;24.20;99.90;;;;;;4989748;28;20233;-81
2021/07/04 11:22:53;;;;;;;;;;;24.40;99.90;;;;;;4989870;28;19918;-81
2021/07/04 11:25:19;;;;;;;;;;;24.50;99.90;;;;;;4990605;28;20494;-82
2021/07/04 11:27:44;;;;;;;;;;;24.70;99.90;;;;;;5005429;28;19976;-81
2021/07/04 11:30:21;;;;;;;;;;;24.80;99.90;;;;;;5005758;28;19921;-82
2021/07/04 11:32:47;;;;;;;;;;;24.90;99.90;;;;;;4999249;28;20324;-82
2021/07/04 11:35:13;;;;;;;;;;;24.70;99.90;;;;;;5009361;28;19922;-84
2021/07/04 11:37:39;;;;;;;;;;;24.50;99.90;;;;;;4994535;28;19936;-81
2021/07/04 11:40:05;;;;;;;;;;;24.50;99.90;;;;;;4993533;28;19922;-82
2021/07/04 11:42:31;;;;;;;;;;;24.20;99.90;;;;;;4994275;28;19965;-81
2021/07/04 11:44:56;;;;;;;;;;;24.10;99.90;;;;;;4994784;28;19928;-82
2021/07/04 11:47:22;;;;;;;;;;;24.00;99.90;;;;;;4992729;28;19922;-82
2021/07/04 11:49:47;;;;;;;;;;;23.80;99.90;;;;;;4992140;28;20322;-81
2021/07/04 11:52:20;;;;;;;;;;;23.60;99.90;;;;;;5003997;28;19933;-82
2021/07/04 11:54:46;;;;;;;;;;;23.50;99.90;;;;;;4992531;28;19948;-81
2021/07/04 11:57:31;;;;;;;;;;;23.40;99.90;;;;;;5019655;28;20127;-80
2021/07/04 11:59:58;;;;;;;;;;;23.20;99.90;;;;;;5031526;28;20399;-82
2021/07/04 12:02:25;;;;;;;;;;;23.20;99.90;;;;;;5032316;28;19925;-82
2021/07/04 12:04:50;;;;;;;;;;;23.10;99.90;;;;;;5032866;28;19913;-81
2021/07/04 12:07:20;;;;;;;;;;;23.00;99.90;;;;;;5015357;28;19920;-82
2021/07/04 12:09:46;;;;;;;;;;;23.00;99.90;;;;;;5031079;28;19913;-81
2021/07/04 12:12:15;;;;;;;;;;;22.80;99.90;;;;;;5033268;28;19928;-81
2021/07/04 12:14:41;;;;;;;;;;;22.80;99.90;;;;;;5030970;28;19917;-81
2021/07/04 12:17:25;;;;;;;;;;;22.90;99.90;;;;;;5031596;28;20303;-84
2021/07/04 12:20:06;;;;;;;;;;;22.90;99.90;;;;;;5014236;28;19917;-82
2021/07/04 12:22:37;;;;;;;;;;;22.90;99.90;;;;;;5031615;28;19921;-82
2021/07/04 12:25:09;;;;;;;;;;;23.00;99.90;;;;;;5031905;28;20032;-82
2021/07/04 12:27:39;;;;;;;;;;;22.90;99.90;;;;;;5014597;28;20012;-82
2021/07/04 12:30:09;;;;;;;;;;;22.90;99.90;;;;;;5014181;28;19921;-83
2021/07/04 12:32:57;;;;;;;;;;;23.00;99.90;;;;;;5031637;28;20232;-82
2021/07/04 12:35:42;;;;;;;;;;;23.00;99.90;;;;;;5031206;28;19947;-82
2021/07/04 12:38:08;;;;;;;;;;;22.80;99.90;;;;;;5030375;28;20320;-82
2021/07/04 12:40:35;;;;;;;;;;;22.90;99.90;;;;;;5029768;28;19927;-82
2021/07/04 12:43:08;;;;;;;;;;;23.10;99.90;;;;;;5030733;28;20378;-82
2021/07/04 12:45:34;;;;;;;;;;;23.30;99.90;;;;;;5030835;28;19959;-82
2021/07/04 12:48:03;;;;;;;;;;;23.50;99.90;;;;;;5031757;28;19964;-82
2021/07/04 12:50:37;;;;;;;;;;;23.60;99.90;;;;;;5029363;28;19921;-82
2021/07/04 12:53:02;;;;;;;;;;;23.60;99.90;;;;;;5028095;28;19928;-81
2021/07/04 12:55:42;;;;;;;;;;;23.70;99.90;;;;;;5031214;28;19947;-82
2021/07/04 12:58:19;;;;;;;;;;;23.80;99.90;;;;;;5014743;28;19928;-80
2021/07/04 13:00:45;;;;;;;;;;;23.80;99.90;;;;;;5017347;28;19923;-81
2021/07/04 13:03:11;;;;;;;;;;;23.70;99.90;;;;;;5018083;28;19999;-81
2021/07/04 13:05:38;;;;;;;;;;;23.70;99.90;;;;;;5034710;28;20000;-83
2021/07/04 13:08:12;;;;;;;;;;;23.70;99.90;;;;;;5035421;28;19909;-81
2021/07/04 13:10:38;;;;;;;;;;;23.40;99.90;;;;;;5018803;28;19945;-81
2021/07/04 13:13:08;;;;;;;;;;;23.30;99.90;;;;;;5036108;28;19978;-81
2021/07/04 13:15:33;;;;;;;;;;;23.30;99.90;;;;;;5035350;28;19916;-82
2021/07/04 13:17:59;;;;;;;;;;;23.30;99.90;;;;;;5033404;28;19921;-80
2021/07/04 13:20:25;;;;;;;;;;;23.30;99.90;;;;;;5017641;28;20351;-81
2021/07/04 13:22:55;;;;;;;;;;;23.30;99.90;;;;;;5035309;28;19951;-81
2021/07/04 13:25:21;;;;;;;;;;;23.30;99.90;;;;;;5036320;28;19967;-83
2021/07/04 13:28:10;;;;;;;;;;;23.30;99.90;;;;;;5034036;28;19913;-82
2021/07/04 13:30:44;;;;;;;;;;;23.40;99.90;;;;;;5008350;28;19917;-82
2021/07/04 13:33:10;;;;;;;;;;;23.40;99.90;;;;;;5034292;28;20331;-82
2021/07/04 13:35:45;;;;;;;;;;;23.40;99.90;;;;;;5023160;28;19913;-82
2021/07/04 13:38:14;;;;;;;;;;;23.50;99.90;;;;;;5034191;28;19912;-82
2021/07/04 13:40:40;;;;;;;;;;;23.50;99.90;;;;;;5015031;28;19929;-82
2021/07/04 13:43:06;;;;;;;;;;;23.60;99.90;;;;;;5035132;28;19909;-82
2021/07/04 13:45:36;;;;;;;;;;;23.60;99.90;;;;;;5032618;28;19971;-82
2021/07/04 13:48:04;;;;;;;;;;;23.60;99.90;;;;;;5032588;28;19949;-83
2021/07/04 13:50:30;;;;;;;;;;;23.60;99.90;;;;;;5035142;28;19921;-81
2021/07/04 13:52:56;;;;;;;;;;;23.60;99.90;;;;;;5011887;28;19913;-82
2021/07/04 13:55:22;;;;;;;;;;;23.30;99.90;;;;;;5016341;28;19913;-83
2021/07/04 13:57:48;;;;;;;;;;;23.20;99.90;;;;;;5032337;28;19922;-84
2021/07/04 14:00:14;;;;;;;;;;;23.00;99.90;;;;;;5035142;28;19920;-82
2021/07/04 14:02:40;;;;;;;;;;;22.70;99.90;;;;;;5009091;28;20279;-82
2021/07/04 14:05:06;;;;;;;;;;;22.70;99.90;;;;;;5017003;28;19944;-83
2021/07/04 14:07:31;;;;;;;;;;;22.50;99.90;;;;;;5032907;28;19963;-85
2021/07/04 14:09:57;;;;;;;;;;;22.30;99.90;;;;;;5017153;28;19916;-83
2021/07/04 14:12:23;;;;;;;;;;;22.20;99.90;;;;;;5014743;28;19916;-83
2021/07/04 14:14:48;;;;;;;;;;;22.10;99.90;;;;;;5016195;28;19914;-84